createdAt,value
2022-12-18T00:00:07.381Z,53.30
2022-12-18T00:03:01.989Z,60.00
2022-12-18T00:05:30.257Z,56.50
2022-12-18T00:07:58.279Z,45.00
2022-12-18T00:10:26.297Z,49.40
2022-12-18T00:12:54.362Z,44.20
2022-12-18T00:15:22.384Z,52.40
2022-12-18T00:17:50.374Z,44.50
2022-12-18T00:20:22.917Z,48.70
2022-12-18T00:22:50.938Z,31.10
2022-12-18T00:25:19.267Z,48.00
2022-12-18T00:27:47.334Z,42.40
2022-12-18T00:30:16.059Z,35.50
2022-12-18T00:32:44.116Z,46.50
2022-12-18T00:35:12.393Z,53.20
2022-12-18T00:37:40.452Z,41.70
2022-12-18T00:40:09.411Z,39.80
2022-12-18T00:42:57.023Z,50.80
2022-12-18T00:45:30.937Z,44.70
2022-12-18T00:47:59.192Z,43.10
2022-12-18T00:50:27.834Z,39.70
2022-12-18T00:52:55.838Z,33.10
2022-12-18T00:55:24.070Z,41.60
2022-12-18T00:57:53.588Z,35.40
2022-12-18T01:00:22.183Z,26.30
2022-12-18T01:02:50.840Z,27.80
2022-12-18T01:05:19.754Z,35.00
2022-12-18T01:07:47.896Z,25.60
2022-12-18T01:10:16.283Z,23.90
2022-12-18T01:12:44.366Z,22.90
2022-12-18T01:15:14.412Z,24.10
2022-12-18T01:17:42.689Z,19.80
2022-12-18T01:20:14.013Z,24.30
2022-12-18T01:22:42.084Z,19.90
2022-12-18T01:25:10.270Z,19.00
2022-12-18T01:27:38.343Z,34.70
2022-12-18T01:30:07.460Z,28.60
2022-12-18T01:32:35.508Z,25.30
2022-12-18T01:35:04.748Z,24.90
2022-12-18T01:37:32.838Z,18.60
2022-12-18T01:40:00.901Z,27.50
2022-12-18T01:42:28.973Z,23.80
2022-12-18T01:45:05.356Z,20.70
2022-12-18T01:47:33.377Z,24.00
2022-12-18T01:50:11.934Z,19.80
2022-12-18T01:52:43.725Z,23.30
2022-12-18T01:55:13.642Z,19.20
2022-12-18T01:57:42.526Z,23.70
2022-12-18T02:00:16.652Z,19.60
2022-12-18T02:02:46.206Z,27.70
2022-12-18T02:05:24.664Z,29.20
2022-12-18T02:08:11.752Z,23.30
2022-12-18T02:11:01.322Z,28.60
2022-12-18T02:13:36.476Z,29.80
2022-12-18T02:16:25.707Z,24.60
2022-12-18T02:19:00.392Z,21.10
2022-12-18T02:22:11.722Z,20.80
2022-12-18T02:24:49.629Z,21.50
2022-12-18T02:27:19.572Z,23.30
2022-12-18T02:29:57.854Z,22.80
2022-12-18T02:32:31.869Z,29.20
2022-12-18T02:35:02.925Z,24.90
2022-12-18T02:37:33.546Z,26.90
2022-12-18T02:40:05.709Z,28.10
2022-12-18T02:42:34.421Z,27.60
2022-12-18T02:45:02.965Z,30.20
2022-12-18T02:47:35.504Z,26.30
2022-12-18T02:50:19.314Z,23.90
2022-12-18T02:53:17.670Z,25.40
2022-12-18T02:56:16.857Z,23.90
2022-12-18T02:59:06.900Z,26.60
2022-12-18T03:01:55.219Z,27.80
2022-12-18T03:04:40.822Z,37.60
2022-12-18T03:07:16.686Z,26.50
2022-12-18T03:09:50.491Z,22.50
2022-12-18T03:12:23.994Z,32.90
2022-12-18T03:15:17.845Z,29.00
2022-12-18T03:17:53.083Z,33.40
2022-12-18T03:20:23.610Z,25.00
2022-12-18T03:22:58.661Z,22.20
2022-12-18T03:25:29.049Z,17.80
2022-12-18T03:27:59.858Z,28.90
2022-12-18T03:30:30.924Z,26.90
2022-12-18T03:33:25.147Z,20.10
2022-12-18T03:35:56.285Z,18.40
2022-12-18T03:38:24.804Z,21.70
2022-12-18T03:41:01.414Z,17.10
2022-12-18T03:43:56.402Z,24.20
2022-12-18T03:46:39.805Z,26.10
2022-12-18T03:49:30.688Z,16.30
2022-12-18T03:52:27.211Z,23.00
2022-12-18T03:54:59.183Z,27.50
2022-12-18T03:57:31.344Z,26.30
2022-12-18T04:00:13.039Z,19.20
2022-12-18T04:02:56.784Z,19.50
2022-12-18T04:05:34.440Z,17.70
2022-12-18T04:08:03.674Z,26.20
2022-12-18T04:10:32.364Z,20.60
2022-12-18T04:13:03.919Z,22.90
2022-12-18T04:15:36.029Z,20.00
2022-12-18T04:18:04.949Z,24.70
2022-12-18T04:20:39.152Z,31.90
2022-12-18T04:23:07.194Z,24.10
2022-12-18T04:25:35.690Z,43.10
2022-12-18T04:28:09.477Z,24.70
2022-12-18T04:30:39.336Z,21.00
2022-12-18T04:33:12.446Z,18.80
2022-12-18T04:35:41.542Z,18.70
2022-12-18T04:38:11.026Z,21.60
2022-12-18T04:40:40.301Z,27.90
2022-12-18T04:43:15.763Z,24.50
2022-12-18T04:45:43.883Z,18.70
2022-12-18T04:48:11.947Z,22.00
2022-12-18T04:50:40.478Z,24.80
2022-12-18T04:53:09.058Z,13.00
2022-12-18T04:55:38.141Z,19.90
2022-12-18T04:58:06.903Z,23.20
2022-12-18T05:00:34.886Z,13.50
2022-12-18T05:03:03.671Z,26.80
2022-12-18T05:05:32.292Z,26.10
2022-12-18T05:08:01.207Z,22.80
2022-12-18T05:10:33.456Z,74.00
2022-12-18T05:13:05.839Z,31.10
2022-12-18T05:15:34.851Z,28.00
2022-12-18T05:18:04.846Z,30.00
2022-12-18T05:20:32.899Z,30.20
2022-12-18T05:23:00.926Z,27.20
2022-12-18T05:25:29.176Z,22.20
2022-12-18T05:27:57.529Z,24.50
2022-12-18T05:30:26.155Z,41.00
2022-12-18T05:32:54.920Z,33.00
2022-12-18T05:35:23.118Z,21.90
2022-12-18T05:37:51.210Z,28.30
2022-12-18T05:40:19.394Z,29.80
2022-12-18T05:42:47.431Z,17.70
2022-12-18T05:45:15.473Z,24.60
2022-12-18T05:47:43.500Z,27.90
2022-12-18T05:50:11.501Z,34.20
2022-12-18T05:52:39.507Z,29.10
2022-12-18T05:55:07.881Z,26.00
2022-12-18T05:57:35.865Z,28.90
2022-12-18T06:00:04.845Z,18.40
2022-12-18T06:02:40.414Z,23.50
2022-12-18T06:05:08.984Z,27.50
2022-12-18T06:07:37.049Z,27.90
2022-12-18T06:10:05.618Z,26.80
2022-12-18T06:12:34.682Z,31.20
2022-12-18T06:15:02.842Z,29.10
2022-12-18T06:17:34.202Z,30.10
2022-12-18T06:20:02.467Z,35.60
2022-12-18T06:22:33.213Z,28.00
2022-12-18T06:25:01.239Z,26.40
2022-12-18T06:27:29.779Z,30.60
2022-12-18T06:29:57.919Z,25.80
2022-12-18T06:32:26.044Z,10.10
2022-12-18T06:34:55.004Z,25.80
2022-12-18T06:37:27.230Z,37.30
2022-12-18T06:39:55.362Z,32.70
2022-12-18T06:42:24.340Z,42.20
2022-12-18T06:44:52.688Z,38.70
2022-12-18T06:47:20.767Z,39.50
2022-12-18T06:49:48.758Z,30.70
2022-12-18T06:52:16.790Z,46.20
2022-12-18T06:54:44.773Z,35.20
2022-12-18T06:57:12.809Z,38.00
2022-12-18T06:59:40.839Z,20.00
2022-12-18T07:02:13.776Z,24.70
2022-12-18T07:04:42.018Z,22.40
2022-12-18T07:07:10.011Z,33.70
2022-12-18T07:09:38.069Z,28.40
2022-12-18T07:12:06.211Z,36.80
2022-12-18T07:14:34.221Z,51.10
2022-12-18T07:17:02.523Z,31.30
2022-12-18T07:19:31.186Z,50.70
2022-12-18T07:22:00.867Z,31.00
2022-12-18T07:24:29.551Z,33.90
2022-12-18T07:26:57.603Z,39.80
2022-12-18T07:29:25.742Z,35.30
2022-12-18T07:31:53.825Z,39.30
2022-12-18T07:34:21.920Z,38.60
2022-12-18T07:36:49.934Z,26.20
2022-12-18T07:39:17.987Z,53.70
2022-12-18T07:42:05.911Z,44.50
2022-12-18T07:44:34.601Z,34.30
2022-12-18T07:47:03.955Z,36.10
2022-12-18T07:49:33.561Z,42.40
2022-12-18T07:52:02.795Z,33.60
2022-12-18T07:54:30.858Z,31.70
2022-12-18T07:56:58.929Z,63.30
2022-12-18T07:59:27.410Z,55.60
2022-12-18T08:01:55.592Z,25.40
2022-12-18T08:04:23.809Z,44.00
2022-12-18T08:06:52.367Z,50.50
2022-12-18T08:09:20.486Z,56.50
2022-12-18T08:11:48.501Z,47.70
2022-12-18T08:14:16.504Z,51.50
2022-12-18T08:16:44.772Z,32.60
2022-12-18T08:19:12.933Z,46.90
2022-12-18T08:21:41.297Z,43.10
2022-12-18T08:24:11.021Z,42.50
2022-12-18T08:26:39.222Z,38.10
2022-12-18T08:29:07.245Z,51.20
2022-12-18T08:31:35.429Z,46.30
2022-12-18T08:34:03.656Z,56.70
2022-12-18T08:36:31.701Z,48.20
2022-12-18T08:38:59.743Z,48.00
2022-12-18T08:41:28.454Z,39.00
2022-12-18T08:44:15.347Z,47.70
2022-12-18T08:46:45.037Z,46.40
2022-12-18T08:49:13.408Z,54.80
2022-12-18T08:51:41.534Z,52.30
2022-12-18T08:54:12.752Z,44.30
2022-12-18T08:56:40.776Z,40.80
2022-12-18T08:59:15.802Z,40.80
2022-12-18T09:01:48.432Z,52.10
2022-12-18T09:04:16.761Z,51.50
2022-12-18T09:06:44.814Z,42.30
2022-12-18T09:09:13.066Z,36.00
2022-12-18T09:11:41.091Z,33.10
2022-12-18T09:14:10.917Z,34.40
2022-12-18T09:16:39.260Z,31.90
2022-12-18T09:19:07.465Z,32.00
2022-12-18T09:21:37.397Z,31.90
2022-12-18T09:24:08.886Z,33.90
2022-12-18T09:26:38.148Z,31.40
2022-12-18T09:29:08.445Z,137.20
2022-12-18T09:31:37.542Z,101.70
2022-12-18T09:34:05.598Z,123.30
2022-12-18T09:36:34.211Z,84.10
2022-12-18T09:39:07.598Z,60.60
2022-12-18T09:41:51.849Z,49.10
2022-12-18T09:44:26.002Z,45.60
2022-12-18T09:47:21.856Z,40.20
2022-12-18T09:50:32.942Z,38.50
2022-12-18T09:53:07.800Z,28.40
2022-12-18T09:55:44.345Z,35.30
2022-12-18T09:58:16.647Z,31.40
2022-12-18T10:00:44.785Z,28.50
2022-12-18T10:03:16.741Z,25.40
2022-12-18T10:06:06.467Z,34.10
2022-12-18T10:08:40.996Z,32.30
2022-12-18T10:11:34.146Z,32.30
2022-12-18T10:14:22.757Z,27.40
2022-12-18T10:16:53.863Z,129.30
2022-12-18T10:19:50.467Z,35.70
2022-12-18T10:22:42.795Z,36.10
2022-12-18T10:25:24.030Z,35.60
2022-12-18T10:27:59.656Z,33.90
2022-12-18T10:30:27.861Z,25.40
2022-12-18T10:33:02.144Z,21.90
2022-12-18T10:35:30.412Z,44.40
2022-12-18T10:38:04.635Z,36.20
2022-12-18T10:40:33.618Z,29.70
2022-12-18T10:43:14.249Z,30.00
2022-12-18T10:45:43.402Z,29.40
2022-12-18T10:48:25.169Z,24.50
2022-12-18T10:53:44.133Z,28.10
2022-12-18T10:56:13.554Z,31.90
2022-12-18T10:58:41.998Z,40.20
2022-12-18T11:01:14.861Z,21.40
2022-12-18T11:04:08.607Z,48.70
2022-12-18T11:06:55.069Z,50.80
2022-12-18T11:09:26.084Z,62.60
2022-12-18T11:11:58.045Z,104.90
2022-12-18T11:14:30.036Z,79.60
2022-12-18T11:20:01.124Z,64.30
2022-12-18T11:22:32.852Z,71.40
2022-12-18T11:27:57.680Z,40.20
2022-12-18T11:30:25.713Z,49.20
2022-12-18T11:33:35.316Z,38.60
2022-12-18T11:36:06.956Z,58.00
2022-12-18T11:38:41.948Z,55.60
2022-12-18T11:41:44.449Z,33.60
2022-12-18T11:46:57.030Z,90.70
2022-12-18T11:49:34.679Z,126.80
2022-12-18T11:52:39.285Z,50.30
2022-12-18T11:55:54.410Z,38.20
2022-12-18T11:58:49.049Z,28.60
2022-12-18T12:02:02.338Z,31.60
2022-12-18T12:04:47.170Z,36.40
2022-12-18T12:07:27.744Z,31.80
2022-12-18T12:10:14.555Z,52.10
2022-12-18T12:13:01.220Z,48.10
2022-12-18T12:15:41.184Z,38.20
2022-12-18T12:18:27.781Z,50.80
2022-12-18T12:21:31.087Z,63.60
2022-12-18T12:24:24.033Z,54.00
2022-12-18T12:27:16.326Z,57.60
2022-12-18T12:30:00.358Z,39.10
2022-12-18T12:32:37.092Z,33.90
2022-12-18T12:35:09.622Z,28.40
2022-12-18T12:38:15.676Z,25.50
2022-12-18T12:41:06.492Z,30.30
2022-12-18T12:46:38.149Z,84.20
2022-12-18T12:49:15.423Z,51.10
2022-12-18T12:51:48.355Z,29.70
2022-12-18T12:54:22.046Z,44.70
2022-12-18T12:57:10.874Z,26.40
2022-12-18T13:00:04.827Z,47.70
2022-12-18T13:03:14.338Z,112.40
2022-12-18T13:05:42.355Z,32.50
2022-12-18T13:08:12.394Z,30.10
2022-12-18T13:10:44.035Z,35.80
2022-12-18T13:13:17.256Z,32.90
2022-12-18T13:16:07.696Z,33.40
2022-12-18T13:18:36.504Z,35.80
2022-12-18T13:21:21.276Z,36.90
2022-12-18T13:23:50.668Z,41.10
2022-12-18T13:26:23.218Z,32.40
2022-12-18T13:28:57.944Z,98.60
2022-12-18T13:31:41.878Z,76.40
2022-12-18T13:34:27.524Z,58.00
2022-12-18T13:37:18.095Z,38.50
2022-12-18T13:39:46.287Z,29.20
2022-12-18T13:42:35.590Z,30.40
2022-12-18T13:45:43.874Z,28.20
2022-12-18T13:48:19.397Z,53.40
2022-12-18T13:50:56.490Z,54.00
2022-12-18T13:53:29.965Z,34.50
2022-12-18T13:55:58.645Z,39.20
2022-12-18T13:58:26.767Z,37.30
2022-12-18T14:00:55.471Z,37.30
2022-12-18T14:03:29.422Z,34.10
2022-12-18T14:06:04.231Z,27.60
2022-12-18T14:08:40.923Z,43.80
2022-12-18T14:11:21.398Z,37.70
2022-12-18T14:13:51.120Z,45.50
2022-12-18T14:16:19.837Z,28.40
2022-12-18T14:19:07.296Z,35.10
2022-12-18T14:21:49.204Z,27.90
2022-12-18T14:24:21.190Z,37.10
2022-12-18T14:26:51.368Z,39.50
2022-12-18T14:29:27.114Z,39.50
2022-12-18T14:32:33.452Z,39.50
2022-12-18T14:35:14.271Z,45.10
2022-12-18T14:37:42.255Z,95.20
2022-12-18T14:40:14.238Z,29.60
2022-12-18T14:42:43.203Z,29.30
2022-12-18T14:45:39.113Z,28.90
2022-12-18T14:48:21.712Z,33.20
2022-12-18T14:51:16.015Z,34.10
2022-12-18T14:53:53.716Z,43.40
2022-12-18T14:56:25.748Z,46.50
2022-12-18T14:59:00.283Z,31.50
2022-12-18T15:01:38.193Z,36.00
2022-12-18T15:04:24.418Z,26.20
2022-12-18T15:07:23.934Z,25.70
2022-12-18T15:10:25.018Z,26.70
2022-12-18T15:13:03.682Z,32.70
2022-12-18T15:15:35.126Z,34.50
2022-12-18T15:20:56.351Z,20.20
2022-12-18T15:23:25.954Z,27.50
2022-12-18T15:26:00.006Z,22.70
2022-12-18T15:28:34.664Z,22.80
2022-12-18T15:31:15.018Z,27.20
2022-12-18T15:33:55.005Z,21.10
2022-12-18T15:36:26.804Z,23.00
2022-12-18T15:39:05.032Z,25.30
2022-12-18T15:41:37.266Z,23.40
2022-12-18T15:44:26.548Z,51.50
2022-12-18T15:46:58.057Z,79.30
2022-12-18T15:49:26.485Z,63.20
2022-12-18T15:52:02.911Z,47.60
2022-12-18T15:54:49.670Z,31.80
2022-12-18T15:57:26.693Z,26.00
2022-12-18T15:59:59.279Z,26.70
2022-12-18T16:02:29.692Z,23.00
2022-12-18T16:04:58.187Z,27.80
2022-12-18T16:07:29.161Z,45.50
2022-12-18T16:09:59.421Z,38.50
2022-12-18T16:14:58.562Z,31.60
2022-12-18T16:17:26.605Z,116.80
2022-12-18T16:19:55.045Z,68.60
2022-12-18T16:22:29.043Z,55.30
2022-12-18T16:24:58.229Z,30.80
2022-12-18T16:27:27.126Z,29.00
2022-12-18T16:29:55.365Z,41.60
2022-12-18T16:32:24.465Z,55.70
2022-12-18T16:34:52.810Z,55.00
2022-12-18T16:37:20.907Z,53.10
2022-12-18T16:39:48.978Z,27.80
2022-12-18T16:42:20.657Z,21.00
2022-12-18T16:44:50.567Z,29.90
2022-12-18T16:47:19.881Z,32.60
2022-12-18T16:49:51.839Z,43.70
2022-12-18T16:52:21.037Z,48.80
2022-12-18T16:54:49.175Z,36.00
2022-12-18T16:57:20.191Z,30.60
2022-12-18T17:02:23.620Z,135.40
2022-12-18T17:04:55.561Z,66.80
2022-12-18T17:07:24.921Z,168.20
2022-12-18T17:09:54.868Z,100.50
2022-12-18T17:12:23.914Z,320.20
2022-12-18T17:14:51.987Z,348.40
2022-12-18T17:17:22.641Z,218.20
2022-12-18T17:19:52.554Z,150.30
2022-12-18T17:22:23.513Z,39.40
2022-12-18T17:24:51.734Z,30.40
2022-12-18T17:27:19.975Z,29.60
2022-12-18T17:29:48.993Z,52.80
2022-12-18T17:32:18.024Z,81.80
2022-12-18T17:34:46.344Z,71.40
2022-12-18T17:37:14.772Z,181.70
2022-12-18T17:39:43.174Z,67.50
2022-12-18T17:42:14.841Z,86.70
2022-12-18T17:44:44.502Z,120.80
2022-12-18T17:47:14.181Z,120.30
2022-12-18T17:49:42.224Z,144.70
2022-12-18T17:52:10.923Z,127.00
2022-12-18T17:54:41.582Z,58.20
2022-12-18T17:57:10.554Z,54.80
2022-12-18T17:59:38.695Z,45.50
2022-12-18T18:02:07.499Z,41.30
2022-12-18T18:04:36.456Z,40.60
2022-12-18T18:07:04.707Z,47.40
2022-12-18T18:09:32.830Z,38.90
2022-12-18T18:12:19.726Z,36.60
2022-12-18T18:14:48.197Z,32.80
2022-12-18T18:17:16.197Z,42.90
2022-12-18T18:19:46.806Z,62.30
2022-12-18T18:22:19.143Z,37.40
2022-12-18T18:24:48.234Z,56.80
2022-12-18T18:27:16.441Z,50.90
2022-12-18T18:29:45.171Z,41.30
2022-12-18T18:32:13.322Z,43.40
2022-12-18T18:34:42.085Z,43.10
2022-12-18T18:37:12.112Z,42.50
2022-12-18T18:39:40.197Z,40.10
2022-12-18T18:42:08.451Z,39.00
2022-12-18T18:44:36.995Z,41.90
2022-12-18T18:47:06.974Z,43.70
2022-12-18T18:49:37.917Z,42.80
2022-12-18T18:52:07.311Z,49.30
2022-12-18T18:54:35.576Z,39.20
2022-12-18T18:57:20.561Z,42.70
2022-12-18T18:59:49.259Z,26.90
2022-12-18T19:02:18.127Z,32.10
2022-12-18T19:04:47.124Z,34.70
2022-12-18T19:07:30.158Z,33.00
2022-12-18T19:10:04.411Z,34.30
2022-12-18T19:12:53.376Z,46.40
2022-12-18T19:15:23.035Z,43.90
2022-12-18T19:17:51.198Z,32.40
2022-12-18T19:20:19.524Z,36.80
2022-12-18T19:22:55.126Z,43.10
2022-12-18T19:25:40.723Z,74.90
2022-12-18T19:28:21.577Z,152.10
2022-12-18T19:30:57.259Z,118.40
2022-12-18T19:33:45.057Z,64.50
2022-12-18T19:36:28.394Z,106.50
2022-12-18T19:39:00.031Z,39.60
2022-12-18T19:41:31.410Z,39.90
2022-12-18T19:44:02.225Z,47.50
2022-12-18T19:46:37.150Z,47.40
2022-12-18T19:49:11.960Z,39.90
2022-12-18T19:51:46.296Z,55.60
2022-12-18T19:54:17.273Z,58.30
2022-12-18T19:56:46.909Z,58.20
2022-12-18T19:59:14.986Z,49.30
2022-12-18T20:01:43.381Z,42.20
2022-12-18T20:04:11.550Z,58.90
2022-12-18T20:06:51.632Z,56.50
2022-12-18T20:09:20.516Z,46.20
2022-12-18T20:11:49.874Z,47.40
2022-12-18T20:14:23.163Z,35.40
2022-12-18T20:16:52.645Z,42.60
2022-12-18T20:19:22.515Z,36.70
2022-12-18T20:21:50.737Z,41.70
2022-12-18T20:24:19.354Z,59.70
2022-12-18T20:26:47.465Z,48.30
2022-12-18T20:29:15.512Z,54.40
2022-12-18T20:31:43.631Z,45.20
2022-12-18T20:34:12.270Z,46.90
2022-12-18T20:36:41.178Z,49.30
2022-12-18T20:39:10.942Z,46.00
2022-12-18T20:41:40.473Z,35.40
2022-12-18T20:44:21.904Z,54.30
2022-12-18T20:46:58.266Z,61.00
2022-12-18T20:49:27.337Z,41.30
2022-12-18T20:51:58.149Z,38.80
2022-12-18T20:54:27.882Z,74.10
2022-12-18T20:56:56.985Z,222.90
2022-12-18T20:59:26.153Z,80.90
2022-12-18T21:01:54.713Z,47.00
2022-12-18T21:04:24.076Z,45.10
2022-12-18T21:07:00.770Z,48.50
2022-12-18T21:09:37.680Z,53.70
2022-12-18T21:12:36.543Z,42.80
2022-12-18T21:15:16.500Z,45.10
2022-12-18T21:17:45.433Z,40.90
2022-12-18T21:20:17.917Z,39.30
2022-12-18T21:22:49.463Z,40.40
2022-12-18T21:25:17.722Z,48.90
2022-12-18T21:27:45.754Z,50.60
2022-12-18T21:30:15.259Z,47.30
2022-12-18T21:32:43.366Z,46.30
2022-12-18T21:35:11.513Z,41.70
2022-12-18T21:37:42.235Z,41.90
2022-12-18T21:40:14.493Z,47.40
2022-12-18T21:43:01.436Z,39.80
2022-12-18T21:45:29.459Z,43.00
2022-12-18T21:47:57.706Z,40.20
2022-12-18T21:50:25.818Z,52.50
2022-12-18T21:52:53.833Z,45.70
2022-12-18T21:55:21.889Z,35.50
2022-12-18T21:57:50.411Z,43.70
2022-12-18T22:00:19.750Z,46.50
2022-12-18T22:02:49.272Z,35.80
2022-12-18T22:05:37.685Z,30.20
2022-12-18T22:08:07.116Z,41.70
2022-12-18T22:10:36.588Z,44.40
2022-12-18T22:13:06.863Z,47.20
2022-12-18T22:15:35.000Z,45.30
2022-12-18T22:18:03.264Z,46.20
2022-12-18T22:20:31.262Z,32.30
2022-12-18T22:23:04.370Z,46.90
2022-12-18T22:25:35.345Z,31.70
2022-12-18T22:28:25.638Z,41.60
2022-12-18T22:30:59.654Z,44.70
2022-12-18T22:35:56.785Z,44.30
2022-12-18T22:38:25.042Z,45.90
2022-12-18T22:40:53.057Z,37.10
2022-12-18T22:43:21.530Z,42.70
2022-12-18T22:45:49.621Z,43.30
2022-12-18T22:48:18.001Z,43.30
2022-12-18T22:50:47.243Z,48.40
2022-12-18T22:53:17.191Z,39.60
2022-12-18T22:55:45.306Z,50.50
2022-12-18T22:58:13.364Z,67.60
2022-12-18T23:00:41.415Z,84.80
2022-12-18T23:03:09.956Z,102.80
2022-12-18T23:05:38.230Z,112.10
2022-12-18T23:08:06.266Z,106.30
2022-12-18T23:10:37.780Z,126.90
2022-12-18T23:13:05.831Z,120.20
2022-12-18T23:15:34.257Z,115.30
2022-12-18T23:18:02.272Z,109.60
2022-12-18T23:20:30.783Z,105.20
2022-12-18T23:22:58.802Z,90.20
2022-12-18T23:25:26.840Z,69.20
2022-12-18T23:27:54.867Z,66.40
2022-12-18T23:30:22.926Z,73.10
2022-12-18T23:32:51.249Z,69.10
2022-12-18T23:35:19.424Z,85.60
2022-12-18T23:37:58.750Z,96.70
2022-12-18T23:40:29.590Z,82.00
2022-12-18T23:43:00.342Z,98.60
2022-12-18T23:45:28.400Z,98.70
2022-12-18T23:47:56.496Z,73.40
2022-12-18T23:50:28.764Z,65.70
2022-12-18T23:53:04.820Z,64.20
2022-12-18T23:55:39.927Z,51.50
2022-12-18T23:58:20.241Z,50.20
